sensor_id;sensor_type;location;lat;lon;timestamp;pressure;altitude;pressure_sealevel;temperature;humidity
30724;BME280;17473;52.286;20.930;2022-09-09T00:01:58;100063.53;;;12.72;85.53
30724;BME280;17473;52.286;20.930;2022-09-09T00:04:38;100065.19;;;12.66;87.54
30724;BME280;17473;52.286;20.930;2022-09-09T00:07:49;100058.38;;;12.79;87.37
30724;BME280;17473;52.286;20.930;2022-09-09T00:10:26;100055.59;;;12.72;87.93
30724;BME280;17473;52.286;20.930;2022-09-09T00:13:06;100059.38;;;12.40;89.44
30724;BME280;17473;52.286;20.930;2022-09-09T00:21:58;100044.13;;;12.30;92.22
30724;BME280;17473;52.286;20.930;2022-09-09T00:24:41;100052.31;;;12.42;91.52
30724;BME280;17473;52.286;20.930;2022-09-09T00:27:43;100049.66;;;12.41;92.85
30724;BME280;17473;52.286;20.930;2022-09-09T00:30:18;100066.56;;;12.46;92.16
30724;BME280;17473;52.286;20.930;2022-09-09T00:32:54;100040.88;;;12.43;92.50
30724;BME280;17473;52.286;20.930;2022-09-09T00:35:44;100047.75;;;12.33;93.61
30724;BME280;17473;52.286;20.930;2022-09-09T00:38:17;100050.16;;;12.23;94.78
30724;BME280;17473;52.286;20.930;2022-09-09T00:40:58;100042.28;;;12.26;95.78
30724;BME280;17473;52.286;20.930;2022-09-09T00:43:32;100050.84;;;12.14;96.29
30724;BME280;17473;52.286;20.930;2022-09-09T00:55:36;100044.50;;;12.05;98.52
30724;BME280;17473;52.286;20.930;2022-09-09T00:58:08;100047.38;;;12.16;97.42
30724;BME280;17473;52.286;20.930;2022-09-09T01:00:48;100044.88;;;12.23;97.95
30724;BME280;17473;52.286;20.930;2022-09-09T01:06:32;100050.28;;;12.27;98.65
30724;BME280;17473;52.286;20.930;2022-09-09T01:09:23;100049.47;;;12.31;98.97
30724;BME280;17473;52.286;20.930;2022-09-09T01:12:24;100044.81;;;12.21;99.10
30724;BME280;17473;52.286;20.930;2022-09-09T01:15:00;100048.09;;;12.09;100.00
30724;BME280;17473;52.286;20.930;2022-09-09T01:26:37;100046.31;;;12.08;100.00
30724;BME280;17473;52.286;20.930;2022-09-09T01:29:12;100040.38;;;12.20;100.00
30724;BME280;17473;52.286;20.930;2022-09-09T01:32:37;100031.47;;;12.15;99.94
30724;BME280;17473;52.286;20.930;2022-09-09T01:34:38;100037.88;;;11.86;100.00
30724;BME280;17473;52.286;20.930;2022-09-09T01:37:12;100023.25;;;12.02;100.00
30724;BME280;17473;52.286;20.930;2022-09-09T01:39:43;100021.56;;;12.06;100.00
30724;BME280;17473;52.286;20.930;2022-09-09T01:42:15;100032.03;;;12.01;100.00
30724;BME280;17473;52.286;20.930;2022-09-09T01:44:42;100028.59;;;12.04;100.00
30724;BME280;17473;52.286;20.930;2022-09-09T01:47:09;100035.78;;;12.10;100.00
30724;BME280;17473;52.286;20.930;2022-09-09T01:49:36;100033.38;;;12.22;100.00
30724;BME280;17473;52.286;20.930;2022-09-09T01:52:03;100034.00;;;12.09;100.00
30724;BME280;17473;52.286;20.930;2022-09-09T01:54:32;100036.56;;;12.05;100.00
30724;BME280;17473;52.286;20.930;2022-09-09T01:57:26;100030.50;;;12.10;100.00
30724;BME280;17473;52.286;20.930;2022-09-09T02:00:03;100034.69;;;12.01;100.00
30724;BME280;17473;52.286;20.930;2022-09-09T02:05:51;100026.19;;;12.15;100.00
30724;BME280;17473;52.286;20.930;2022-09-09T02:08:31;100023.84;;;11.90;100.00
30724;BME280;17473;52.286;20.930;2022-09-09T02:11:22;100034.00;;;12.10;100.00
30724;BME280;17473;52.286;20.930;2022-09-09T02:13:57;100024.16;;;12.03;100.00
30724;BME280;17473;52.286;20.930;2022-09-09T02:21:43;100015.38;;;12.05;100.00
30724;BME280;17473;52.286;20.930;2022-09-09T02:24:14;100012.88;;;12.12;100.00
30724;BME280;17473;52.286;20.930;2022-09-09T02:26:46;100013.59;;;12.04;100.00
30724;BME280;17473;52.286;20.930;2022-09-09T02:29:33;100011.69;;;11.97;100.00
30724;BME280;17473;52.286;20.930;2022-09-09T02:32:05;100009.63;;;11.85;100.00
30724;BME280;17473;52.286;20.930;2022-09-09T02:34:40;100022.22;;;11.96;100.00
30724;BME280;17473;52.286;20.930;2022-09-09T02:37:09;100019.84;;;12.08;100.00
30724;BME280;17473;52.286;20.930;2022-09-09T02:39:37;100023.25;;;12.02;100.00
30724;BME280;17473;52.286;20.930;2022-09-09T02:42:05;100030.41;;;12.07;100.00
30724;BME280;17473;52.286;20.930;2022-09-09T02:44:32;100034.63;;;11.98;100.00
30724;BME280;17473;52.286;20.930;2022-09-09T02:47:24;100042.47;;;11.95;100.00
30724;BME280;17473;52.286;20.930;2022-09-09T02:55:52;100039.69;;;12.27;100.00
30724;BME280;17473;52.286;20.930;2022-09-09T02:58:22;100043.31;;;12.32;100.00
30724;BME280;17473;52.286;20.930;2022-09-09T03:00:51;100037.78;;;12.21;100.00
30724;BME280;17473;52.286;20.930;2022-09-09T03:03:19;100037.03;;;12.27;100.00
30724;BME280;17473;52.286;20.930;2022-09-09T03:05:47;100037.69;;;12.17;100.00
30724;BME280;17473;52.286;20.930;2022-09-09T03:08:14;100033.44;;;12.24;100.00
30724;BME280;17473;52.286;20.930;2022-09-09T03:10:41;100035.50;;;12.39;100.00
30724;BME280;17473;52.286;20.930;2022-09-09T03:13:08;100034.97;;;12.14;100.00
30724;BME280;17473;52.286;20.930;2022-09-09T03:15:35;100025.41;;;12.20;100.00
30724;BME280;17473;52.286;20.930;2022-09-09T03:18:02;100029.91;;;12.25;100.00
30724;BME280;17473;52.286;20.930;2022-09-09T03:20:30;100033.38;;;12.22;100.00
30724;BME280;17473;52.286;20.930;2022-09-09T03:22:59;100028.06;;;12.20;100.00
30724;BME280;17473;52.286;20.930;2022-09-09T03:25:27;100031.38;;;12.10;100.00
30724;BME280;17473;52.286;20.930;2022-09-09T03:27:56;100037.72;;;12.18;100.00
30724;BME280;17473;52.286;20.930;2022-09-09T03:30:24;100032.59;;;12.26;100.00
30724;BME280;17473;52.286;20.930;2022-09-09T03:32:55;100027.69;;;12.45;100.00
30724;BME280;17473;52.286;20.930;2022-09-09T03:35:22;100027.16;;;12.20;100.00
30724;BME280;17473;52.286;20.930;2022-09-09T03:37:49;100013.22;;;12.29;100.00
30724;BME280;17473;52.286;20.930;2022-09-09T03:40:16;100023.41;;;12.09;100.00
30724;BME280;17473;52.286;20.930;2022-09-09T03:42:43;100021.84;;;12.20;100.00
30724;BME280;17473;52.286;20.930;2022-09-09T03:45:10;100020.00;;;12.14;100.00
30724;BME280;17473;52.286;20.930;2022-09-09T03:47:38;100026.16;;;12.13;100.00
30724;BME280;17473;52.286;20.930;2022-09-09T03:50:07;100023.41;;;12.09;100.00
30724;BME280;17473;52.286;20.930;2022-09-09T03:52:40;100035.28;;;12.28;100.00
30724;BME280;17473;52.286;20.930;2022-09-09T03:55:08;100033.34;;;12.19;100.00
30724;BME280;17473;52.286;20.930;2022-09-09T03:57:36;100029.69;;;12.15;100.00
30724;BME280;17473;52.286;20.930;2022-09-09T04:00:05;100035.81;;;12.11;100.00
30724;BME280;17473;52.286;20.930;2022-09-09T04:02:33;100036.03;;;12.22;100.00
30724;BME280;17473;52.286;20.930;2022-09-09T04:05:00;100029.97;;;12.28;100.00
30724;BME280;17473;52.286;20.930;2022-09-09T04:07:27;100030.16;;;12.35;100.00
30724;BME280;17473;52.286;20.930;2022-09-09T04:09:54;100017.41;;;12.17;100.00
30724;BME280;17473;52.286;20.930;2022-09-09T04:12:22;100032.69;;;12.31;100.00
30724;BME280;17473;52.286;20.930;2022-09-09T04:14:49;100024.91;;;12.39;100.00
30724;BME280;17473;52.286;20.930;2022-09-09T04:17:16;100035.34;;;12.31;100.00
30724;BME280;17473;52.286;20.930;2022-09-09T04:19:44;100027.78;;;12.08;100.00
30724;BME280;17473;52.286;20.930;2022-09-09T04:22:11;100025.66;;;12.33;100.00
30724;BME280;17473;52.286;20.930;2022-09-09T04:24:38;100029.28;;;12.36;100.00
30724;BME280;17473;52.286;20.930;2022-09-09T04:27:05;100028.41;;;12.37;100.00
30724;BME280;17473;52.286;20.930;2022-09-09T04:29:32;100028.84;;;12.16;100.00
30724;BME280;17473;52.286;20.930;2022-09-09T04:31:59;100022.97;;;12.31;100.00
30724;BME280;17473;52.286;20.930;2022-09-09T04:34:26;100029.41;;;12.43;100.00
30724;BME280;17473;52.286;20.930;2022-09-09T04:36:53;100033.44;;;12.24;100.00
30724;BME280;17473;52.286;20.930;2022-09-09T04:39:19;100035.50;;;12.39;100.00
30724;BME280;17473;52.286;20.930;2022-09-09T04:41:46;100021.97;;;12.25;100.00
30724;BME280;17473;52.286;20.930;2022-09-09T04:44:14;100031.94;;;12.36;100.00
30724;BME280;17473;52.286;20.930;2022-09-09T04:46:41;100029.41;;;12.43;100.00
30724;BME280;17473;52.286;20.930;2022-09-09T04:49:08;100039.88;;;12.36;100.00
30724;BME280;17473;52.286;20.930;2022-09-09T04:51:40;100034.94;;;12.55;100.00
30724;BME280;17473;52.286;20.930;2022-09-09T04:54:07;100043.47;;;12.40;100.00
30724;BME280;17473;52.286;20.930;2022-09-09T04:56:34;100047.19;;;12.48;100.00
30724;BME280;17473;52.286;20.930;2022-09-09T04:59:03;100045.97;;;12.32;100.00
30724;BME280;17473;52.286;20.930;2022-09-09T05:01:30;100052.41;;;12.47;100.00
30724;BME280;17473;52.286;20.930;2022-09-09T05:03:57;100042.16;;;12.62;100.00
30724;BME280;17473;52.286;20.930;2022-09-09T05:06:24;100049.25;;;12.63;100.00
30724;BME280;17473;52.286;20.930;2022-09-09T05:08:52;100048.25;;;12.58;100.00
30724;BME280;17473;52.286;20.930;2022-09-09T05:11:25;100049.97;;;12.56;100.00
30724;BME280;17473;52.286;20.930;2022-09-09T05:13:54;100046.91;;;12.36;100.00
30724;BME280;17473;52.286;20.930;2022-09-09T05:16:22;100048.97;;;12.49;100.00
30724;BME280;17473;52.286;20.930;2022-09-09T05:18:50;100043.03;;;12.63;100.00
30724;BME280;17473;52.286;20.930;2022-09-09T05:21:20;100049.53;;;12.77;100.00
30724;BME280;17473;52.286;20.930;2022-09-09T05:23:48;100049.25;;;12.63;100.00
30724;BME280;17473;52.286;20.930;2022-09-09T05:26:18;100043.72;;;12.52;100.00
30724;BME280;17473;52.286;20.930;2022-09-09T05:28:46;100043.03;;;12.63;100.00
30724;BME280;17473;52.286;20.930;2022-09-09T05:31:16;100048.63;;;12.34;100.00
30724;BME280;17473;52.286;20.930;2022-09-09T05:33:45;100050.59;;;12.43;100.00
30724;BME280;17473;52.286;20.930;2022-09-09T05:36:18;100048.16;;;12.53;100.00
30724;BME280;17473;52.286;20.930;2022-09-09T05:38:47;100055.44;;;12.65;100.00
30724;BME280;17473;52.286;20.930;2022-09-09T05:41:14;100051.72;;;12.54;100.00
30724;BME280;17473;52.286;20.930;2022-09-09T05:43:44;100052.78;;;12.64;100.00
30724;BME280;17473;52.286;20.930;2022-09-09T05:46:17;100049.28;;;12.66;100.00
30724;BME280;17473;52.286;20.930;2022-09-09T05:48:46;100054.47;;;12.59;100.00
30724;BME280;17473;52.286;20.930;2022-09-09T05:51:19;100052.00;;;12.70;100.00
30724;BME280;17473;52.286;20.930;2022-09-09T05:53:48;100055.44;;;12.65;100.00
30724;BME280;17473;52.286;20.930;2022-09-09T05:56:17;100051.25;;;12.77;100.00
30724;BME280;17473;52.286;20.930;2022-09-09T05:58:45;100055.69;;;12.76;100.00
30724;BME280;17473;52.286;20.930;2022-09-09T06:03:51;100056.50;;;12.74;100.00
30724;BME280;17473;52.286;20.930;2022-09-09T06:06:25;100059.19;;;12.75;100.00
30724;BME280;17473;52.286;20.930;2022-09-09T06:08:56;100064.44;;;12.74;100.00
30724;BME280;17473;52.286;20.930;2022-09-09T06:11:29;100058.34;;;12.78;100.00
30724;BME280;17473;52.286;20.930;2022-09-09T06:13:59;100066.22;;;12.73;100.00
30724;BME280;17473;52.286;20.930;2022-09-09T06:16:29;100068.69;;;12.65;100.00
30724;BME280;17473;52.286;20.930;2022-09-09T06:18:56;100070.19;;;12.51;100.00
30724;BME280;17473;52.286;20.930;2022-09-09T06:21:33;100065.66;;;12.91;100.00
30724;BME280;17473;52.286;20.930;2022-09-09T06:24:01;100072.53;;;12.80;100.00
30724;BME280;17473;52.286;20.930;2022-09-09T06:26:39;100083.34;;;12.91;100.00
30724;BME280;17473;52.286;20.930;2022-09-09T06:29:09;100083.91;;;12.76;100.00
30724;BME280;17473;52.286;20.930;2022-09-09T06:31:38;100084.88;;;12.79;100.00
30724;BME280;17473;52.286;20.930;2022-09-09T06:34:07;100084.00;;;12.80;100.00
30724;BME280;17473;52.286;20.930;2022-09-09T06:36:37;100080.78;;;12.97;100.00
30724;BME280;17473;52.286;20.930;2022-09-09T06:39:06;100079.09;;;13.00;100.00
30724;BME280;17473;52.286;20.930;2022-09-09T06:41:40;100081.19;;;13.17;100.00
30724;BME280;17473;52.286;20.930;2022-09-09T06:44:07;100080.13;;;13.09;100.00
30724;BME280;17473;52.286;20.930;2022-09-09T06:46:34;100081.75;;;13.00;100.00
30724;BME280;17473;52.286;20.930;2022-09-09T06:49:02;100086.22;;;13.03;100.00
30724;BME280;17473;52.286;20.930;2022-09-09T06:51:35;100087.97;;;13.03;100.00
30724;BME280;17473;52.286;20.930;2022-09-09T06:54:04;100088.03;;;13.06;100.00
30724;BME280;17473;52.286;20.930;2022-09-09T06:56:36;100096.00;;;13.06;100.00
30724;BME280;17473;52.286;20.930;2022-09-09T06:59:05;100091.63;;;13.08;100.00
30724;BME280;17473;52.286;20.930;2022-09-09T07:01:35;100097.72;;;13.05;100.00
30724;BME280;17473;52.286;20.930;2022-09-09T07:04:04;100101.56;;;13.20;100.00
30724;BME280;17473;52.286;20.930;2022-09-09T07:06:42;100098.91;;;13.21;100.00
30724;BME280;17473;52.286;20.930;2022-09-09T07:09:15;100096.97;;;13.11;100.00
30724;BME280;17473;52.286;20.930;2022-09-09T07:11:48;100093.69;;;13.24;100.00
30724;BME280;17473;52.286;20.930;2022-09-09T07:14:16;100104.25;;;13.23;100.00
30724;BME280;17473;52.286;20.930;2022-09-09T07:16:44;100104.22;;;13.21;100.00
30724;BME280;17473;52.286;20.930;2022-09-09T07:19:13;100094.41;;;13.15;100.00
30724;BME280;17473;52.286;20.930;2022-09-09T07:21:41;100095.31;;;13.16;100.00
30724;BME280;17473;52.286;20.930;2022-09-09T07:24:09;100100.09;;;13.37;100.00
30724;BME280;17473;52.286;20.930;2022-09-09T07:26:39;100102.34;;;13.15;100.00
30724;BME280;17473;52.286;20.930;2022-09-09T07:29:07;100111.38;;;13.25;100.00
30724;BME280;17473;52.286;20.930;2022-09-09T07:31:37;100122.97;;;13.32;100.00
30724;BME280;17473;52.286;20.930;2022-09-09T07:34:05;100106.88;;;13.23;100.00
30724;BME280;17473;52.286;20.930;2022-09-09T07:36:38;100113.97;;;13.24;100.00
30724;BME280;17473;52.286;20.930;2022-09-09T07:39:11;100119.53;;;13.36;100.00
30724;BME280;17473;52.286;20.930;2022-09-09T07:41:45;100117.59;;;13.27;100.00
30724;BME280;17473;52.286;20.930;2022-09-09T07:44:24;100119.72;;;13.44;100.00
30724;BME280;17473;52.286;20.930;2022-09-09T07:46:51;100114.59;;;13.56;100.00
30724;BME280;17473;52.286;20.930;2022-09-09T07:49:19;100110.91;;;13.48;100.00
30724;BME280;17473;52.286;20.930;2022-09-09T07:51:55;100117.31;;;13.59;100.00
30724;BME280;17473;52.286;20.930;2022-09-09T07:54:22;100116.44;;;13.60;100.00
30724;BME280;17473;52.286;20.930;2022-09-09T07:56:51;100131.53;;;13.63;100.00
30724;BME280;17473;52.286;20.930;2022-09-09T07:59:19;100126.75;;;13.42;100.00
30724;BME280;17473;52.286;20.930;2022-09-09T08:01:49;100138.63;;;13.64;100.00
30724;BME280;17473;52.286;20.930;2022-09-09T08:04:21;100137.44;;;13.48;100.00
30724;BME280;17473;52.286;20.930;2022-09-09T08:07:00;100143.00;;;13.64;100.00
30724;BME280;17473;52.286;20.930;2022-09-09T08:09:28;100144.88;;;13.69;100.00
30724;BME280;17473;52.286;20.930;2022-09-09T08:11:56;100142.38;;;13.78;100.00
30724;BME280;17473;52.286;20.930;2022-09-09T08:14:24;100148.31;;;13.64;100.00
30724;BME280;17473;52.286;20.930;2022-09-09T08:16:52;100149.09;;;13.56;100.00
30724;BME280;17473;52.286;20.930;2022-09-09T08:19:21;100151.78;;;13.58;100.00
30724;BME280;17473;52.286;20.930;2022-09-09T08:21:48;100151.97;;;13.69;100.00
30724;BME280;17473;52.286;20.930;2022-09-09T08:24:16;100150.03;;;13.60;100.00
30724;BME280;17473;52.286;20.930;2022-09-09T08:26:48;100166.16;;;13.71;100.00
30724;BME280;17473;52.286;20.930;2022-09-09T08:29:16;100166.31;;;13.80;100.00
30724;BME280;17473;52.286;20.930;2022-09-09T08:31:50;100160.78;;;13.68;100.00
30724;BME280;17473;52.286;20.930;2022-09-09T08:34:18;100156.81;;;13.95;100.00
30724;BME280;17473;52.286;20.930;2022-09-09T08:36:49;100156.94;;;14.02;100.00
30724;BME280;17473;52.286;20.930;2022-09-09T08:39:19;100162.75;;;13.78;100.00
30724;BME280;17473;52.286;20.930;2022-09-09T08:50:34;100158.13;;;14.21;100.00
30724;BME280;17473;52.286;20.930;2022-09-09T08:53:28;100159.56;;;14.01;100.00
30724;BME280;17473;52.286;20.930;2022-09-09T08:56:09;100163.41;;;14.20;100.00
30724;BME280;17473;52.286;20.930;2022-09-09T08:58:47;100167.16;;;14.33;100.00
30724;BME280;17473;52.286;20.930;2022-09-09T09:04:40;100171.94;;;14.59;100.00
30724;BME280;17473;52.286;20.930;2022-09-09T09:07:35;100158.53;;;14.49;100.00
30724;BME280;17473;52.286;20.930;2022-09-09T09:10:31;100168.28;;;14.50;100.00
30724;BME280;17473;52.286;20.930;2022-09-09T09:14:07;100169.88;;;14.37;100.00
30724;BME280;17473;52.286;20.930;2022-09-09T09:16:40;100172.81;;;14.56;100.00
30724;BME280;17473;52.286;20.930;2022-09-09T09:19:15;100173.69;;;14.56;100.00
30724;BME280;17473;52.286;20.930;2022-09-09T09:21:48;100176.41;;;14.60;100.00
30724;BME280;17473;52.286;20.930;2022-09-09T09:24:23;100184.97;;;14.42;100.00
30724;BME280;17473;52.286;20.930;2022-09-09T09:26:53;100172.47;;;14.34;100.00
30724;BME280;17473;52.286;20.930;2022-09-09T09:29:23;100191.06;;;14.33;100.00
30724;BME280;17473;52.286;20.930;2022-09-09T09:31:52;100190.91;;;14.23;100.00
30724;BME280;17473;52.286;20.930;2022-09-09T09:34:23;100190.13;;;14.31;100.00
30724;BME280;17473;52.286;20.930;2022-09-09T09:36:56;100189.53;;;14.50;100.00
30724;BME280;17473;52.286;20.930;2022-09-09T09:39:30;100193.03;;;14.48;100.00
30724;BME280;17473;52.286;20.930;2022-09-09T09:42:18;100191.78;;;14.24;100.00
30724;BME280;17473;52.286;20.930;2022-09-09T09:44:49;100197.16;;;14.29;100.00
30724;BME280;17473;52.286;20.930;2022-09-09T09:47:23;100182.53;;;14.55;100.00
30724;BME280;17473;52.286;20.930;2022-09-09T09:50:00;100193.50;;;14.77;100.00
30724;BME280;17473;52.286;20.930;2022-09-09T09:52:31;100190.28;;;14.40;100.00
30724;BME280;17473;52.286;20.930;2022-09-09T09:54:59;100189.50;;;14.49;100.00
30724;BME280;17473;52.286;20.930;2022-09-09T09:57:34;100189.69;;;14.63;100.00
30724;BME280;17473;52.286;20.930;2022-09-09T10:00:14;100192.66;;;14.81;100.00
30724;BME280;17473;52.286;20.930;2022-09-09T10:02:45;100186.25;;;14.67;100.00
30724;BME280;17473;52.286;20.930;2022-09-09T10:05:20;100183.44;;;14.56;100.00
30724;BME280;17473;52.286;20.930;2022-09-09T10:08:14;100198.22;;;15.00;100.00
30724;BME280;17473;52.286;20.930;2022-09-09T10:14:30;100193.63;;;14.90;100.00
30724;BME280;17473;52.286;20.930;2022-09-09T10:17:09;100199.00;;;14.93;100.00
30724;BME280;17473;52.286;20.930;2022-09-09T10:19:52;100203.41;;;14.91;100.00
30724;BME280;17473;52.286;20.930;2022-09-09T10:22:28;100206.22;;;15.01;99.96
30724;BME280;17473;52.286;20.930;2022-09-09T10:32:40;100222.88;;;14.90;100.00
30724;BME280;17473;52.286;20.930;2022-09-09T10:35:31;100230.97;;;14.97;100.00
30724;BME280;17473;52.286;20.930;2022-09-09T10:38:24;100238.00;;;14.92;100.00
30724;BME280;17473;52.286;20.930;2022-09-09T10:52:45;100245.78;;;14.78;100.00
30724;BME280;17473;52.286;20.930;2022-09-09T10:55:20;100250.59;;;15.07;100.00
30724;BME280;17473;52.286;20.930;2022-09-09T10:57:58;100250.56;;;15.06;100.00
30724;BME280;17473;52.286;20.930;2022-09-09T11:00:42;100245.97;;;14.92;100.00
30724;BME280;17473;52.286;20.930;2022-09-09T11:03:26;100251.09;;;14.78;100.00
30724;BME280;17473;52.286;20.930;2022-09-09T11:06:11;100256.47;;;14.83;100.00
30724;BME280;17473;52.286;20.930;2022-09-09T11:08:40;100264.41;;;14.80;100.00
30724;BME280;17473;52.286;20.930;2022-09-09T11:11:27;100261.13;;;14.99;100.00
30724;BME280;17473;52.286;20.930;2022-09-09T11:14:15;100267.41;;;15.06;100.00
30724;BME280;17473;52.286;20.930;2022-09-09T11:16:53;100275.16;;;14.88;100.00
30724;BME280;17473;52.286;20.930;2022-09-09T11:19:40;100263.13;;;15.17;100.00
30724;BME280;17473;52.286;20.930;2022-09-09T11:22:34;100273.13;;;15.36;100.00
30724;BME280;17473;52.286;20.930;2022-09-09T11:25:59;100272.13;;;15.27;100.00
30724;BME280;17473;52.286;20.930;2022-09-09T11:28:52;100265.97;;;15.30;100.00
30724;BME280;17473;52.286;20.930;2022-09-09T11:34:48;100267.72;;;15.29;100.00
30724;BME280;17473;52.286;20.930;2022-09-09T11:40:24;100273.94;;;15.31;100.00
30724;BME280;17473;52.286;20.930;2022-09-09T11:43:24;100266.25;;;15.55;99.42
30724;BME280;17473;52.286;20.930;2022-09-09T11:45:56;100272.50;;;15.57;99.41
30724;BME280;17473;52.286;20.930;2022-09-09T11:48:37;100271.34;;;15.36;99.38
30724;BME280;17473;52.286;20.930;2022-09-09T11:51:11;100276.03;;;15.57;99.02
30724;BME280;17473;52.286;20.930;2022-09-09T11:53:59;100267.06;;;15.47;99.40
30724;BME280;17473;52.286;20.930;2022-09-09T11:56:43;100276.13;;;15.63;98.43
30724;BME280;17473;52.286;20.930;2022-09-09T11:59:31;100272.31;;;15.44;99.19
30724;BME280;17473;52.286;20.930;2022-09-09T12:02:14;100283.84;;;15.43;100.00
30724;BME280;17473;52.286;20.930;2022-09-09T12:05:08;100284.59;;;15.31;100.00
30724;BME280;17473;52.286;20.930;2022-09-09T12:07:57;100274.06;;;15.39;100.00
30724;BME280;17473;52.286;20.930;2022-09-09T12:10:27;100273.31;;;15.53;100.00
30724;BME280;17473;52.286;20.930;2022-09-09T12:12:55;100280.53;;;15.63;99.03
30724;BME280;17473;52.286;20.930;2022-09-09T12:15:33;100272.59;;;15.69;98.74
30724;BME280;17473;52.286;20.930;2022-09-09T12:18:01;100275.09;;;15.52;99.53
30724;BME280;17473;52.286;20.930;2022-09-09T12:20:37;100271.09;;;15.14;100.00
30724;BME280;17473;52.286;20.930;2022-09-09T12:32:10;100282.22;;;15.55;100.00
30724;BME280;17473;52.286;20.930;2022-09-09T12:35:19;100292.91;;;15.61;99.69
30724;BME280;17473;52.286;20.930;2022-09-09T12:37:58;100292.97;;;15.62;100.00
30724;BME280;17473;52.286;20.930;2022-09-09T12:40:35;100280.53;;;15.64;100.00
30724;BME280;17473;52.286;20.930;2022-09-09T12:43:19;100280.03;;;15.96;97.67
30724;BME280;17473;52.286;20.930;2022-09-09T12:45:50;100285.28;;;15.89;98.58
30724;BME280;17473;52.286;20.930;2022-09-09T12:48:53;100279.13;;;15.93;98.08
30724;BME280;17473;52.286;20.930;2022-09-09T12:51:30;100274.59;;;15.84;98.71
30724;BME280;17473;52.286;20.930;2022-09-09T12:53:59;100271.09;;;15.87;98.32
30724;BME280;17473;52.286;20.930;2022-09-09T12:56:30;100273.84;;;16.01;98.01
30724;BME280;17473;52.286;20.930;2022-09-09T12:58:58;100270.19;;;15.88;98.57
30724;BME280;17473;52.286;20.930;2022-09-09T13:01:31;100276.28;;;15.77;99.23
30724;BME280;17473;52.286;20.930;2022-09-09T13:03:59;100277.88;;;15.61;99.98
30724;BME280;17473;52.286;20.930;2022-09-09T13:06:32;100287.69;;;15.67;99.95
30724;BME280;17473;52.286;20.930;2022-09-09T13:09:01;100279.38;;;15.41;100.00
30724;BME280;17473;52.286;20.930;2022-09-09T13:11:58;100273.97;;;15.33;100.00
30724;BME280;17473;52.286;20.930;2022-09-09T13:14:34;100270.38;;;15.29;100.00
30724;BME280;17473;52.286;20.930;2022-09-09T13:17:05;100262.34;;;15.25;100.00
30724;BME280;17473;52.286;20.930;2022-09-09T13:19:36;100274.06;;;15.41;100.00
30724;BME280;17473;52.286;20.930;2022-09-09T13:22:23;100270.13;;;15.09;100.00
30724;BME280;17473;52.286;20.930;2022-09-09T13:25:27;100260.81;;;15.45;100.00
30724;BME280;17473;52.286;20.930;2022-09-09T13:28:00;100267.06;;;15.46;100.00
30724;BME280;17473;52.286;20.930;2022-09-09T13:30:36;100253.53;;;15.29;100.00
30724;BME280;17473;52.286;20.930;2022-09-09T13:35:58;100268.75;;;15.41;100.00
30724;BME280;17473;52.286;20.930;2022-09-09T13:38:27;100254.63;;;15.45;100.00
30724;BME280;17473;52.286;20.930;2022-09-09T13:41:00;100269.66;;;15.43;100.00
30724;BME280;17473;52.286;20.930;2022-09-09T13:43:44;100263.19;;;15.22;100.00
30724;BME280;17473;52.286;20.930;2022-09-09T13:46:28;100260.75;;;15.39;100.00
30724;BME280;17473;52.286;20.930;2022-09-09T13:48:59;100260.59;;;15.25;100.00
30724;BME280;17473;52.286;20.930;2022-09-09T13:51:43;100268.63;;;15.30;100.00
30724;BME280;17473;52.286;20.930;2022-09-09T13:54:14;100267.53;;;15.14;100.00
30724;BME280;17473;52.286;20.930;2022-09-09T13:56:43;100264.75;;;15.06;100.00
30724;BME280;17473;52.286;20.930;2022-09-09T13:59:19;100273.50;;;14.99;100.00
30724;BME280;17473;52.286;20.930;2022-09-09T14:02:08;100272.91;;;15.20;100.00
30724;BME280;17473;52.286;20.930;2022-09-09T14:04:35;100281.28;;;15.51;100.00
30724;BME280;17473;52.286;20.930;2022-09-09T14:07:02;100269.59;;;15.38;100.00
30724;BME280;17473;52.286;20.930;2022-09-09T14:09:30;100274.69;;;15.21;100.00
30724;BME280;17473;52.286;20.930;2022-09-09T14:11:57;100283.47;;;15.12;100.00
30724;BME280;17473;52.286;20.930;2022-09-09T14:14:24;100275.19;;;14.91;100.00
30724;BME280;17473;52.286;20.930;2022-09-09T14:16:52;100278.03;;;15.05;100.00
30724;BME280;17473;52.286;20.930;2022-09-09T14:19:19;100278.94;;;15.05;100.00
30724;BME280;17473;52.286;20.930;2022-09-09T14:21:46;100278.09;;;15.11;100.00
30724;BME280;17473;52.286;20.930;2022-09-09T14:24:13;100274.69;;;15.21;100.00
30724;BME280;17473;52.286;20.930;2022-09-09T14:26:40;100281.66;;;15.10;100.00
30724;BME280;17473;52.286;20.930;2022-09-09T14:29:07;100285.56;;;15.37;100.00
30724;BME280;17473;52.286;20.930;2022-09-09T14:31:34;100283.88;;;15.46;100.00
30724;BME280;17473;52.286;20.930;2022-09-09T14:34:01;100289.28;;;15.53;100.00
30724;BME280;17473;52.286;20.930;2022-09-09T14:36:28;100294.53;;;15.45;100.00
30724;BME280;17473;52.286;20.930;2022-09-09T14:38:55;100283.06;;;15.52;100.00
30724;BME280;17473;52.286;20.930;2022-09-09T14:41:22;100281.41;;;15.59;100.00
30724;BME280;17473;52.286;20.930;2022-09-09T14:43:50;100282.22;;;15.55;100.00